Time;durP1;ratioP1;P1;durP2;ratioP2;P2;SDS_P1;SDS_P2;PMS_P1;PMS_P2;Temp;Humidity;BMP_temperature;BMP_pressure;BME280_temperature;BME280_humidity;BME280_pressure;Samples;Min_cycle;Max_cycle;Signal;HPM_P1;HPM_P2
2022/05/05 00:01:37;;;;;;;30.20;27.55;;;12.70;99.90;;;;;;5976781;23;20197;-83
2022/05/05 00:04:04;;;;;;;26.95;24.75;;;12.70;99.90;;;;;;5975770;23;20323;-83
2022/05/05 00:06:31;;;;;;;29.00;26.50;;;12.70;99.90;;;;;;5977069;24;20242;-83
2022/05/05 00:08:59;;;;;;;28.05;25.60;;;12.60;99.90;;;;;;5972873;24;20196;-84
2022/05/05 00:14:27;;;;;;;28.63;26.13;;;12.40;99.90;;;;;;5975006;23;20710;-83
2022/05/05 00:16:58;;;;;;;27.88;25.48;;;12.40;99.90;;;;;;5976924;24;20281;-84
2022/05/05 00:19:25;;;;;;;32.15;29.25;;;12.40;99.90;;;;;;5975783;24;20254;-83
2022/05/05 00:21:52;;;;;;;31.13;28.33;;;12.30;99.90;;;;;;5975716;23;20203;-83
2022/05/05 00:24:20;;;;;;;30.95;28.25;;;12.30;99.90;;;;;;5983072;23;20698;-83
2022/05/05 00:26:47;;;;;;;28.75;26.33;;;12.20;99.90;;;;;;5971858;23;20293;-83
2022/05/05 00:29:15;;;;;;;35.97;32.67;;;12.20;99.90;;;;;;5976816;24;20226;-83
2022/05/05 00:31:42;;;;;;;32.80;29.90;;;12.20;99.90;;;;;;5975326;23;20313;-83
2022/05/05 00:34:11;;;;;;;35.95;32.55;;;12.20;99.90;;;;;;5975651;24;20210;-83
2022/05/05 00:36:38;;;;;;;36.63;33.22;;;12.30;99.90;;;;;;5974970;23;20286;-83
2022/05/05 00:39:06;;;;;;;39.38;35.55;;;12.20;99.90;;;;;;5976387;24;20241;-83
2022/05/05 00:41:34;;;;;;;43.25;38.85;;;12.20;99.90;;;;;;5975566;24;20226;-83
2022/05/05 00:44:04;;;;;;;37.88;34.17;;;12.20;99.90;;;;;;5973938;23;20734;-83
2022/05/05 00:46:31;;;;;;;37.25;33.83;;;12.20;99.90;;;;;;5975726;24;20297;-83
2022/05/05 00:48:58;;;;;;;35.15;31.98;;;12.20;99.90;;;;;;5976602;24;20191;-83
2022/05/05 00:51:26;;;;;;;38.03;34.55;;;12.30;99.90;;;;;;5975604;24;20636;-83
2022/05/05 00:53:54;;;;;;;37.80;34.20;;;12.30;99.90;;;;;;5972759;23;20290;-83
2022/05/05 00:56:22;;;;;;;37.13;33.72;;;12.40;99.90;;;;;;5976874;24;20198;-83
2022/05/05 00:58:50;;;;;;;36.50;33.17;;;12.40;99.90;;;;;;5976694;24;20200;-84
2022/05/05 01:01:20;;;;;;;36.28;33.05;;;12.40;99.90;;;;;;5977562;24;20210;-84
2022/05/05 01:03:48;;;;;;;33.97;31.08;;;12.40;99.90;;;;;;5974431;23;20215;-83
2022/05/05 01:06:15;;;;;;;34.22;30.92;;;12.50;99.90;;;;;;5973630;23;20269;-83
2022/05/05 01:08:44;;;;;;;34.63;31.52;;;12.50;99.90;;;;;;5976173;23;20214;-83
2022/05/05 01:11:11;;;;;;;32.85;29.88;;;12.60;99.90;;;;;;5977812;24;20187;-84
2022/05/05 01:13:39;;;;;;;32.72;29.90;;;12.50;99.90;;;;;;5975287;23;20221;-83
2022/05/05 01:16:07;;;;;;;33.35;30.40;;;12.60;99.90;;;;;;5976780;23;20240;-83
2022/05/05 01:18:34;;;;;;;35.78;32.53;;;12.50;99.90;;;;;;5980209;24;20198;-83
2022/05/05 01:21:01;;;;;;;31.48;28.85;;;12.50;99.90;;;;;;5974003;23;20209;-83
2022/05/05 01:23:30;;;;;;;28.80;26.35;;;12.50;99.90;;;;;;5977313;23;20318;-83
2022/05/05 01:28:44;;;;;;;29.98;27.38;;;12.40;99.90;;;;;;5977410;23;20191;-83
2022/05/05 01:31:11;;;;;;;31.20;28.50;;;12.30;99.90;;;;;;5976149;24;20191;-83
2022/05/05 01:33:39;;;;;;;34.10;31.00;;;12.30;99.90;;;;;;5975969;23;20234;-83
2022/05/05 01:36:07;;;;;;;35.05;31.98;;;12.30;99.90;;;;;;5977591;24;20267;-83
2022/05/05 01:38:40;;;;;;;37.38;33.92;;;12.30;99.90;;;;;;5977945;24;20269;-83
2022/05/05 01:41:08;;;;;;;35.30;32.20;;;12.20;99.90;;;;;;5976426;23;20211;-83
2022/05/05 01:43:35;;;;;;;36.30;32.80;;;12.20;99.90;;;;;;5971439;24;20449;-84
2022/05/05 01:46:03;;;;;;;39.10;35.30;;;12.20;99.90;;;;;;5969451;24;20274;-83
2022/05/05 01:48:30;;;;;;;36.88;33.47;;;12.10;99.90;;;;;;5974673;23;20778;-84
2022/05/05 01:50:58;;;;;;;36.95;33.55;;;12.10;99.90;;;;;;5976911;23;20278;-83
2022/05/05 01:53:25;;;;;;;38.60;35.00;;;12.00;99.90;;;;;;5975806;24;21022;-84
2022/05/05 01:55:53;;;;;;;39.92;35.97;;;12.00;99.90;;;;;;5977453;24;20219;-83
2022/05/05 01:58:21;;;;;;;41.33;37.22;;;11.90;99.90;;;;;;5975747;23;20205;-83
2022/05/05 02:00:47;;;;;;;36.85;33.45;;;11.90;99.90;;;;;;5975358;23;20195;-83
2022/05/05 02:03:14;;;;;;;38.33;34.72;;;11.90;99.90;;;;;;5967902;23;20212;-84
2022/05/05 02:05:42;;;;;;;37.40;34.00;;;11.90;99.90;;;;;;5975423;23;20191;-83
2022/05/05 02:08:09;;;;;;;39.22;35.20;;;12.00;99.90;;;;;;5971523;24;20552;-83
2022/05/05 02:10:37;;;;;;;36.08;32.72;;;12.00;99.90;;;;;;5974216;23;20550;-84
2022/05/05 02:13:06;;;;;;;35.83;32.47;;;12.00;99.90;;;;;;5976143;23;20215;-83
2022/05/05 02:15:34;;;;;;;33.55;30.58;;;12.00;99.90;;;;;;5975752;23;20198;-83
2022/05/05 02:18:08;;;;;;;29.55;26.95;;;12.00;99.90;;;;;;5977797;24;20193;-83
2022/05/05 02:20:35;;;;;;;29.25;26.73;;;12.00;99.90;;;;;;5970407;23;20187;-84
2022/05/05 02:23:02;;;;;;;27.25;24.98;;;12.00;99.90;;;;;;5977136;24;20961;-84
2022/05/05 02:25:29;;;;;;;24.00;22.10;;;12.10;99.90;;;;;;5974842;23;20647;-84
2022/05/05 02:27:57;;;;;;;21.90;20.00;;;12.10;99.90;;;;;;5976477;24;20264;-84
2022/05/05 02:30:27;;;;;;;20.92;19.23;;;12.10;99.90;;;;;;5976219;23;20191;-83
2022/05/05 02:32:54;;;;;;;18.58;17.08;;;12.10;99.90;;;;;;5976046;23;20198;-83
2022/05/05 02:35:21;;;;;;;18.00;16.52;;;12.10;99.90;;;;;;5977245;24;20699;-84
2022/05/05 02:40:34;;;;;;;16.35;15.15;;;12.00;99.90;;;;;;5976056;23;20201;-83
2022/05/05 02:43:01;;;;;;;17.30;16.00;;;12.10;99.90;;;;;;5976134;23;20211;-83
2022/05/05 02:45:29;;;;;;;17.90;16.58;;;12.10;99.90;;;;;;5977173;24;20277;-83
2022/05/05 02:47:56;;;;;;;17.85;16.45;;;12.10;99.90;;;;;;5980592;23;20222;-83
2022/05/05 02:50:23;;;;;;;17.77;16.38;;;12.10;99.90;;;;;;5985636;23;20201;-84
2022/05/05 02:52:50;;;;;;;18.23;16.92;;;12.10;99.90;;;;;;5976496;23;20226;-84
2022/05/05 02:55:17;;;;;;;20.52;18.67;;;12.10;99.90;;;;;;5976290;24;20201;-83
2022/05/05 02:57:44;;;;;;;23.67;21.75;;;12.10;99.90;;;;;;5976712;23;20191;-83
2022/05/05 03:00:12;;;;;;;22.23;20.40;;;12.10;99.90;;;;;;5971170;23;20195;-84
2022/05/05 03:02:42;;;;;;;29.27;26.67;;;12.00;99.90;;;;;;5970157;23;20212;-83
2022/05/05 03:05:10;;;;;;;26.25;23.95;;;11.80;99.90;;;;;;5970157;24;20218;-83
2022/05/05 03:07:37;;;;;;;29.90;27.10;;;11.80;99.90;;;;;;5976410;24;20623;-83
2022/05/05 03:10:05;;;;;;;34.75;31.58;;;11.70;99.90;;;;;;5975018;24;20198;-83
2022/05/05 03:12:32;;;;;;;35.05;31.67;;;11.60;99.90;;;;;;5976440;24;20646;-84
2022/05/05 03:15:00;;;;;;;33.08;29.95;;;11.50;99.90;;;;;;5976676;24;20551;-83
2022/05/05 03:17:28;;;;;;;31.30;28.58;;;11.50;99.90;;;;;;5991415;23;20238;-77
2022/05/05 03:19:56;;;;;;;37.28;33.65;;;11.40;99.90;;;;;;6013850;23;20193;-77
2022/05/05 03:22:23;;;;;;;38.47;34.67;;;11.40;99.90;;;;;;6001353;23;20202;-77
2022/05/05 03:24:50;;;;;;;36.33;32.83;;;11.30;99.90;;;;;;5999068;23;20198;-77
2022/05/05 03:27:17;;;;;;;35.28;31.92;;;11.30;99.90;;;;;;6003714;23;20264;-77
2022/05/05 03:29:45;;;;;;;36.47;33.05;;;11.30;99.90;;;;;;6011740;23;20221;-77
2022/05/05 03:32:13;;;;;;;39.55;35.83;;;11.40;99.90;;;;;;6004443;23;20209;-77
2022/05/05 03:34:40;;;;;;;37.28;33.58;;;11.30;99.90;;;;;;6006123;23;20268;-77
2022/05/05 03:37:08;;;;;;;43.70;39.28;;;11.30;99.90;;;;;;6013332;23;20198;-77
2022/05/05 03:39:35;;;;;;;39.88;35.97;;;11.40;99.90;;;;;;6003610;23;20214;-77
2022/05/05 03:42:02;;;;;;;39.90;36.10;;;11.40;99.90;;;;;;6002675;23;20236;-78
2022/05/05 03:44:29;;;;;;;35.90;32.58;;;11.50;99.90;;;;;;6007788;23;21017;-77
2022/05/05 03:46:56;;;;;;;36.60;33.30;;;11.50;99.90;;;;;;6000954;23;20197;-79
2022/05/05 03:49:23;;;;;;;34.25;31.15;;;11.50;99.90;;;;;;5997806;23;20190;-75
2022/05/05 03:51:50;;;;;;;36.10;33.00;;;11.50;99.90;;;;;;5998934;23;20195;-78
2022/05/05 03:54:18;;;;;;;34.40;31.20;;;11.60;99.90;;;;;;6005871;23;20297;-78
2022/05/05 03:56:45;;;;;;;33.10;30.20;;;11.60;99.90;;;;;;5994648;23;20570;-78
2022/05/05 03:59:12;;;;;;;34.10;30.95;;;11.70;99.90;;;;;;6001310;23;20823;-78
2022/05/05 04:01:39;;;;;;;35.80;32.40;;;11.70;99.90;;;;;;5996246;23;20236;-78
2022/05/05 04:04:06;;;;;;;32.33;29.33;;;11.60;99.90;;;;;;6000469;23;20285;-78
2022/05/05 04:06:33;;;;;;;31.98;29.17;;;11.70;99.90;;;;;;6008956;23;20210;-78
2022/05/05 04:09:03;;;;;;;30.27;27.67;;;11.70;99.90;;;;;;6007479;23;20292;-78
2022/05/05 04:11:32;;;;;;;31.77;28.98;;;11.70;99.90;;;;;;5995112;23;20214;-78
2022/05/05 04:13:59;;;;;;;29.98;27.38;;;11.70;99.90;;;;;;6006472;23;20210;-80
2022/05/05 04:16:26;;;;;;;32.08;29.05;;;11.60;99.90;;;;;;6007701;23;20202;-78
2022/05/05 04:18:55;;;;;;;27.63;25.30;;;11.60;99.90;;;;;;5992682;23;20182;-80
2022/05/05 04:21:22;;;;;;;30.00;27.20;;;11.60;99.90;;;;;;6006044;23;20225;-79
2022/05/05 04:23:49;;;;;;;28.70;26.10;;;11.60;99.90;;;;;;6006559;23;20224;-80
2022/05/05 04:26:16;;;;;;;27.73;25.17;;;11.60;99.90;;;;;;6000498;23;20222;-81
2022/05/05 04:28:49;;;;;;;29.98;27.20;;;11.50;99.90;;;;;;6003911;23;20249;-80
2022/05/05 04:31:17;;;;;;;27.10;24.63;;;11.40;99.90;;;;;;6008431;23;20271;-80
2022/05/05 04:33:45;;;;;;;27.35;24.98;;;11.30;99.90;;;;;;5990703;23;20253;-80
2022/05/05 04:36:14;;;;;;;26.80;24.38;;;11.20;99.90;;;;;;6001130;23;20190;-80
2022/05/05 04:38:41;;;;;;;27.13;24.77;;;11.10;99.90;;;;;;5997472;23;20267;-80
2022/05/05 04:41:08;;;;;;;31.20;28.17;;;11.10;99.90;;;;;;5999062;23;20193;-80
2022/05/05 04:43:35;;;;;;;27.73;25.10;;;11.00;99.90;;;;;;5999742;23;20584;-80
2022/05/05 04:46:04;;;;;;;29.05;26.23;;;11.00;99.90;;;;;;6000065;23;20278;-78
2022/05/05 04:48:31;;;;;;;29.35;26.58;;;10.90;99.90;;;;;;5986689;23;20206;-76
2022/05/05 04:50:58;;;;;;;27.05;24.50;;;10.90;99.90;;;;;;5986200;23;20192;-79
2022/05/05 04:53:25;;;;;;;29.23;26.52;;;10.90;99.90;;;;;;5991755;23;20212;-79
2022/05/05 04:55:52;;;;;;;27.70;25.30;;;10.90;99.90;;;;;;5987173;23;20186;-79
2022/05/05 04:58:19;;;;;;;27.75;25.25;;;10.90;99.90;;;;;;5985177;23;20190;-79
2022/05/05 05:00:46;;;;;;;26.45;24.15;;;10.90;99.90;;;;;;5987270;23;20268;-80
2022/05/05 05:05:56;;;;;;;25.80;23.60;;;11.00;99.90;;;;;;5985280;23;20196;-80
2022/05/05 05:08:22;;;;;;;26.45;24.05;;;11.00;99.90;;;;;;5989453;23;20244;-82
2022/05/05 05:10:49;;;;;;;26.58;24.25;;;11.10;99.90;;;;;;5990121;23;20213;-78
2022/05/05 05:13:17;;;;;;;27.85;25.45;;;11.20;99.90;;;;;;5996280;23;20218;-78
2022/05/05 05:15:44;;;;;;;25.95;23.77;;;11.30;99.90;;;;;;5984337;23;20285;-78
2022/05/05 05:18:11;;;;;;;26.90;24.50;;;11.40;99.90;;;;;;5992770;23;20219;-78
2022/05/05 05:20:39;;;;;;;27.05;24.75;;;11.50;99.90;;;;;;5990258;23;20224;-78
2022/05/05 05:23:06;;;;;;;26.38;24.17;;;11.60;99.90;;;;;;5979302;23;20234;-78
2022/05/05 05:25:33;;;;;;;26.60;24.40;;;11.70;99.90;;;;;;5995312;23;20290;-78
2022/05/05 05:28:02;;;;;;;25.20;23.00;;;11.80;99.90;;;;;;6001509;23;20222;-79
2022/05/05 05:30:29;;;;;;;26.15;23.85;;;12.00;99.90;;;;;;6003042;23;20626;-79
2022/05/05 05:32:56;;;;;;;23.98;21.92;;;12.20;99.90;;;;;;5979073;23;20207;-77
2022/05/05 05:35:23;;;;;;;24.38;22.48;;;12.40;99.90;;;;;;6001310;23;20215;-77
2022/05/05 05:37:52;;;;;;;24.10;22.10;;;12.60;99.90;;;;;;6011497;23;20206;-78
2022/05/05 05:40:19;;;;;;;24.17;22.00;;;12.70;99.90;;;;;;5995932;23;20269;-79
2022/05/05 05:42:46;;;;;;;22.35;20.35;;;12.80;99.90;;;;;;5992308;23;20209;-78
2022/05/05 05:45:13;;;;;;;22.05;20.25;;;12.80;99.90;;;;;;5997018;23;20190;-78
2022/05/05 05:47:40;;;;;;;22.27;20.35;;;12.80;99.90;;;;;;5991818;23;20298;-78
2022/05/05 05:50:07;;;;;;;20.60;19.02;;;12.90;99.90;;;;;;6000060;23;20255;-77
2022/05/05 05:52:34;;;;;;;19.92;18.38;;;13.00;99.90;;;;;;5995860;23;20266;-79
2022/05/05 05:55:03;;;;;;;19.17;17.65;;;13.10;99.90;;;;;;5993442;23;20195;-77
2022/05/05 05:57:30;;;;;;;19.50;17.88;;;13.20;99.90;;;;;;5984754;23;20236;-78
2022/05/05 05:59:57;;;;;;;18.75;17.25;;;13.30;99.90;;;;;;5986264;23;20225;-79
2022/05/05 06:05:09;;;;;;;17.63;16.23;;;13.50;99.90;;;;;;5988492;23;20187;-78
2022/05/05 06:07:36;;;;;;;14.40;13.30;;;13.50;99.90;;;;;;5992306;23;20233;-78
2022/05/05 06:10:05;;;;;;;14.55;13.43;;;13.50;99.90;;;;;;5981273;23;20237;-78
2022/05/05 06:12:32;;;;;;;13.20;12.07;;;13.50;99.90;;;;;;5987651;23;20213;-78
2022/05/05 06:14:59;;;;;;;13.23;12.23;;;13.50;99.90;;;;;;5986256;23;20183;-78
2022/05/05 06:17:26;;;;;;;13.52;12.52;;;13.60;99.90;;;;;;5978760;23;20199;-78
2022/05/05 06:19:53;;;;;;;13.57;12.60;;;13.70;99.90;;;;;;5994080;23;20217;-78
2022/05/05 06:22:20;;;;;;;13.30;12.30;;;13.70;99.90;;;;;;5988747;23;20524;-78
2022/05/05 06:24:47;;;;;;;13.88;12.88;;;13.90;99.90;;;;;;5991977;23;20205;-78
2022/05/05 06:27:15;;;;;;;11.70;10.90;;;14.00;99.90;;;;;;5985131;23;20230;-78
2022/05/05 06:29:42;;;;;;;12.53;11.63;;;14.00;99.90;;;;;;5988125;23;20241;-78
2022/05/05 06:32:11;;;;;;;12.30;11.40;;;14.20;99.90;;;;;;5997354;23;20485;-79
2022/05/05 06:34:38;;;;;;;11.95;11.05;;;14.20;99.90;;;;;;5988828;23;20579;-78
2022/05/05 06:37:05;;;;;;;11.38;10.57;;;14.20;99.90;;;;;;5985739;23;20203;-78
2022/05/05 06:39:32;;;;;;;13.40;11.75;;;14.10;99.90;;;;;;5983079;23;20218;-78
2022/05/05 06:42:00;;;;;;;11.75;10.85;;;14.10;99.90;;;;;;5986263;23;20232;-78
2022/05/05 06:44:28;;;;;;;11.65;10.70;;;14.10;99.90;;;;;;5985701;23;20259;-79
2022/05/05 06:46:58;;;;;;;12.90;11.90;;;14.20;99.90;;;;;;5989563;23;20214;-78
2022/05/05 06:49:25;;;;;;;11.90;10.90;;;14.30;99.90;;;;;;5999013;23;20340;-79
2022/05/05 06:51:52;;;;;;;12.07;11.07;;;14.20;99.90;;;;;;5992995;23;20477;-78
2022/05/05 06:54:19;;;;;;;11.80;10.80;;;14.20;99.90;;;;;;5981923;23;20465;-79
2022/05/05 06:56:46;;;;;;;13.05;12.15;;;14.20;99.90;;;;;;5984754;23;20581;-78
2022/05/05 06:59:13;;;;;;;12.23;11.32;;;14.20;99.90;;;;;;5999697;23;20617;-79
2022/05/05 07:01:53;;;;;;;12.60;11.60;;;14.10;99.90;;;;;;6000016;23;20215;-79
2022/05/05 07:07:07;;;;;;;12.77;11.77;;;14.00;99.90;;;;;;6001144;23;20939;-78
2022/05/05 07:12:20;;;;;;;13.38;12.18;;;13.90;99.90;;;;;;5979619;23;20476;-79
2022/05/05 07:14:47;;;;;;;13.60;12.50;;;13.80;99.90;;;;;;5993306;23;20203;-78
2022/05/05 07:17:15;;;;;;;13.47;12.47;;;13.80;99.90;;;;;;5989283;23;20244;-78
2022/05/05 07:19:42;;;;;;;12.80;11.80;;;13.70;99.90;;;;;;5978237;23;20553;-79
2022/05/05 07:22:10;;;;;;;13.55;12.35;;;13.80;99.90;;;;;;5993825;23;20186;-78
2022/05/05 07:24:37;;;;;;;12.70;11.57;;;13.80;99.90;;;;;;5992303;23;20187;-79
2022/05/05 07:27:06;;;;;;;11.70;10.80;;;13.70;99.90;;;;;;5984983;23;20269;-79
2022/05/05 07:29:33;;;;;;;12.20;11.15;;;13.80;99.90;;;;;;5992773;23;20225;-79
2022/05/05 07:32:00;;;;;;;12.57;11.50;;;13.90;99.90;;;;;;5999672;23;20188;-79
2022/05/05 07:34:29;;;;;;;12.20;11.20;;;13.90;99.90;;;;;;5996631;23;20258;-79
2022/05/05 07:36:57;;;;;;;12.40;11.50;;;13.90;99.90;;;;;;5988101;23;20850;-79
2022/05/05 07:39:24;;;;;;;12.73;11.73;;;14.00;99.90;;;;;;5990326;23;20191;-79
2022/05/05 07:41:51;;;;;;;12.90;11.95;;;14.10;99.90;;;;;;6000539;23;20969;-79
2022/05/05 07:44:18;;;;;;;12.00;11.10;;;14.30;99.90;;;;;;5985376;23;20559;-79
2022/05/05 07:46:45;;;;;;;12.20;11.30;;;14.40;99.90;;;;;;6004797;23;20447;-79
2022/05/05 07:49:12;;;;;;;12.33;11.33;;;14.60;99.90;;;;;;5996149;23;20470;-79
2022/05/05 07:51:41;;;;;;;12.10;11.10;;;14.80;99.90;;;;;;5998689;23;20522;-79
2022/05/05 07:56:52;;;;;;;13.60;12.50;;;15.10;99.90;;;;;;5999846;23;20944;-79
2022/05/05 07:59:20;;;;;;;12.10;11.30;;;15.30;99.90;;;;;;5997030;23;20522;-79
2022/05/05 08:01:47;;;;;;;13.53;12.43;;;15.40;99.90;;;;;;5982369;23;20526;-79
2022/05/05 08:04:14;;;;;;;12.37;11.37;;;15.40;99.90;;;;;;5989961;23;20459;-79
2022/05/05 08:06:43;;;;;;;13.83;12.83;;;15.70;99.90;;;;;;5987235;23;20943;-79
2022/05/05 08:09:11;;;;;;;13.37;12.37;;;15.90;99.90;;;;;;5988919;23;20822;-79
2022/05/05 08:11:38;;;;;;;12.60;11.70;;;15.90;99.90;;;;;;5988216;23;20464;-79
2022/05/05 08:14:05;;;;;;;14.27;13.17;;;15.90;99.90;;;;;;5989255;23;20474;-79
2022/05/05 08:16:33;;;;;;;14.03;13.03;;;15.90;99.90;;;;;;5991609;23;20464;-79
2022/05/05 08:19:00;;;;;;;14.67;13.37;;;15.90;99.90;;;;;;5992054;23;20527;-79
2022/05/05 08:21:27;;;;;;;15.93;14.60;;;15.80;99.90;;;;;;5982509;23;20438;-79
2022/05/05 08:29:21;;;;;;;15.40;14.10;;;15.70;99.90;;;;;;5980027;23;20475;-79
2022/05/05 08:31:48;;;;;;;15.60;14.30;;;15.80;99.90;;;;;;5994343;23;20518;-79
2022/05/05 08:34:15;;;;;;;17.07;15.40;;;15.90;99.90;;;;;;5979667;23;20537;-79
2022/05/05 08:36:42;;;;;;;15.33;14.23;;;15.90;99.90;;;;;;5998521;23;21016;-79
2022/05/05 08:39:11;;;;;;;14.93;13.83;;;16.00;99.90;;;;;;5990884;23;20441;-80
2022/05/05 08:41:39;;;;;;;17.50;16.10;;;16.10;99.90;;;;;;5979302;23;20450;-79
2022/05/05 08:44:06;;;;;;;15.37;14.27;;;16.10;99.90;;;;;;5983879;23;20515;-79
2022/05/05 08:46:35;;;;;;;16.33;15.03;;;16.20;99.90;;;;;;5997191;23;20516;-79
2022/05/05 08:49:04;;;;;;;16.37;15.13;;;16.40;99.90;;;;;;5997992;23;20471;-79
2022/05/05 08:51:38;;;;;;;15.23;14.00;;;16.50;99.90;;;;;;5995105;23;20455;-79
2022/05/05 08:54:07;;;;;;;14.43;13.33;;;16.60;99.90;;;;;;5998389;23;20821;-79
2022/05/05 08:56:36;;;;;;;15.87;14.67;;;16.70;99.90;;;;;;5995622;23;20458;-79
2022/05/05 08:59:03;;;;;;;17.03;15.63;;;16.80;99.90;;;;;;5998394;23;20450;-79
2022/05/05 09:01:38;;;;;;;16.47;15.07;;;16.70;99.90;;;;;;5988839;23;20526;-79
2022/05/05 09:04:06;;;;;;;15.70;14.20;;;16.50;99.90;;;;;;5994875;23;20460;-79
2022/05/05 09:06:44;;;;;;;15.00;13.80;;;16.50;99.90;;;;;;6000587;23;20539;-79
2022/05/05 09:09:24;;;;;;;17.77;16.37;;;16.60;99.90;;;;;;6005629;23;20534;-79
2022/05/05 09:12:13;;;;;;;17.53;16.00;;;16.60;99.90;;;;;;5982510;23;20446;-79
2022/05/05 09:14:43;;;;;;;18.00;16.50;;;16.70;99.90;;;;;;5991368;23;20441;-79
2022/05/05 09:17:16;;;;;;;16.27;15.00;;;16.60;99.90;;;;;;5987594;23;20452;-79
2022/05/05 09:19:44;;;;;;;17.13;15.73;;;16.60;99.90;;;;;;5992309;23;20438;-79
2022/05/05 09:22:12;;;;;;;17.60;16.17;;;16.50;99.90;;;;;;5990560;23;20457;-79
2022/05/05 09:24:43;;;;;;;17.00;15.63;;;16.40;99.90;;;;;;5988795;23;20430;-80
2022/05/05 09:27:20;;;;;;;17.10;15.60;;;16.30;99.90;;;;;;5989265;23;20447;-78
2022/05/05 09:30:08;;;;;;;16.30;14.93;;;16.30;99.90;;;;;;5991171;23;20489;-79
2022/05/05 09:32:37;;;;;;;18.70;17.10;;;16.50;99.90;;;;;;5995300;23;20496;-79
2022/05/05 09:35:09;;;;;;;19.07;17.53;;;16.70;99.90;;;;;;5996928;23;20794;-78
2022/05/05 09:37:37;;;;;;;21.87;20.07;;;16.70;99.90;;;;;;5992683;23;20434;-78
2022/05/05 09:40:07;;;;;;;21.00;19.10;;;16.90;99.90;;;;;;5992973;23;20525;-78
2022/05/05 09:42:40;;;;;;;22.00;20.00;;;16.90;99.90;;;;;;5986237;23;20464;-79
2022/05/05 09:45:12;;;;;;;24.33;22.40;;;17.10;99.90;;;;;;5990009;23;20503;-79
2022/05/05 09:47:39;;;;;;;20.60;18.90;;;17.00;99.90;;;;;;5989890;23;20492;-78
2022/05/05 09:50:07;;;;;;;21.33;19.60;;;17.10;99.90;;;;;;5986463;23;20473;-78
2022/05/05 09:58:09;;;;;;;19.70;18.10;;;16.90;99.90;;;;;;5992553;23;20478;-78
2022/05/05 10:00:47;;;;;;;19.23;17.63;;;17.00;99.90;;;;;;5988988;23;20463;-79
2022/05/05 10:06:15;;;;;;;20.97;19.33;;;17.20;99.90;;;;;;5984875;23;20448;-79
2022/05/05 10:08:46;;;;;;;20.40;18.73;;;17.20;99.90;;;;;;5993119;23;20491;-79
2022/05/05 10:11:15;;;;;;;19.23;17.73;;;17.40;99.90;;;;;;5979341;23;21353;-78
2022/05/05 10:13:45;;;;;;;19.53;18.13;;;17.50;99.90;;;;;;5984853;23;20975;-78
2022/05/05 10:16:14;;;;;;;19.37;17.67;;;17.50;99.90;;;;;;5991257;23;20444;-79
2022/05/05 10:18:42;;;;;;;20.53;19.13;;;17.20;99.90;;;;;;5984261;23;20533;-75
2022/05/05 10:21:12;;;;;;;19.07;17.67;;;17.20;99.90;;;;;;5984277;23;20645;-79
2022/05/05 10:24:02;;;;;;;20.43;18.60;;;17.30;99.90;;;;;;5977795;23;20548;-79
2022/05/05 10:26:30;;;;;;;19.97;18.27;;;17.20;99.90;;;;;;5988865;23;20526;-78
2022/05/05 10:28:59;;;;;;;20.43;18.77;;;17.20;99.90;;;;;;5987665;23;20508;-79
2022/05/05 10:31:47;;;;;;;20.50;19.00;;;17.40;99.90;;;;;;5977149;23;20449;-78
2022/05/05 10:34:16;;;;;;;22.43;20.53;;;17.60;99.90;;;;;;5985353;23;20532;-79
2022/05/05 10:36:59;;;;;;;21.67;20.00;;;17.70;99.90;;;;;;5985570;23;20534;-78
2022/05/05 10:39:40;;;;;;;22.53;20.73;;;17.60;99.90;;;;;;5989745;23;20496;-79
2022/05/05 10:42:15;;;;;;;20.37;18.67;;;17.70;99.90;;;;;;5994616;23;20473;-79
2022/05/05 10:45:06;;;;;;;20.70;19.10;;;17.70;99.90;;;;;;5983785;23;20953;-79
2022/05/05 10:50:53;;;;;;;21.33;19.57;;;18.00;99.90;;;;;;5318656;23;20637;-88
2022/05/05 10:53:36;;;;;;;22.07;20.47;;;18.00;99.90;;;;;;5000479;28;20457;-88
2022/05/05 10:56:05;;;;;;;22.17;20.57;;;18.10;99.90;;;;;;5006727;28;20497;-88
2022/05/05 10:58:58;;;;;;;22.87;20.90;;;18.20;99.90;;;;;;5010100;28;20529;-89
2022/05/05 11:01:29;;;;;;;22.60;20.90;;;18.30;99.90;;;;;;4974181;28;20457;-90
2022/05/05 11:04:07;;;;;;;22.53;20.63;;;18.30;99.90;;;;;;4986763;28;20470;-89
2022/05/05 11:06:35;;;;;;;22.80;20.90;;;18.20;99.90;;;;;;4985790;28;20809;-89
2022/05/05 11:09:02;;;;;;;21.83;20.20;;;18.30;99.90;;;;;;4988930;28;20550;-88
2022/05/05 11:11:41;;;;;;;21.53;19.93;;;18.50;99.90;;;;;;4987783;28;20493;-89
2022/05/05 11:22:59;;;;;;;21.87;20.00;;;19.00;99.90;;;;;;4982326;28;20458;-89
2022/05/05 11:25:26;;;;;;;21.97;20.17;;;19.00;99.90;;;;;;4961645;28;20558;-89
2022/05/05 11:27:57;;;;;;;22.77;20.97;;;19.00;99.90;;;;;;4986746;28;20481;-89
2022/05/05 11:30:24;;;;;;;23.30;21.40;;;18.90;99.90;;;;;;5003041;28;20477;-89
2022/05/05 11:32:52;;;;;;;23.23;21.50;;;18.90;99.90;;;;;;5011411;28;20446;-87
2022/05/05 11:35:53;;;;;;;23.80;21.80;;;18.90;99.90;;;;;;5006895;28;20462;-88
2022/05/05 11:38:22;;;;;;;24.27;22.27;;;18.70;99.90;;;;;;4985963;28;20457;-89
2022/05/05 11:40:49;;;;;;;24.77;22.67;;;18.50;99.90;;;;;;4984760;28;20502;-90
2022/05/05 11:45:54;;;;;;;23.97;21.83;;;18.10;99.90;;;;;;5854056;23;20510;-87
2022/05/05 11:48:23;;;;;;;25.30;23.23;;;17.90;99.90;;;;;;5987491;23;20449;-88
2022/05/05 11:50:50;;;;;;;23.33;21.37;;;17.80;99.90;;;;;;5993886;23;20485;-88
2022/05/05 11:53:18;;;;;;;26.57;24.37;;;17.90;99.90;;;;;;6000266;23;20450;-87
2022/05/05 11:55:45;;;;;;;27.10;24.77;;;17.70;99.90;;;;;;5996900;23;20450;-87
2022/05/05 12:01:36;;;;;;;26.47;23.87;;;17.70;99.90;;;;;;6002684;23;20448;-87
2022/05/05 12:04:00;;;;;;;26.63;24.30;;;17.60;99.90;;;;;;5994298;23;20547;-91
2022/05/05 12:06:27;;;;;;;26.67;24.30;;;17.40;99.90;;;;;;6006397;23;20495;-91
2022/05/05 12:08:55;;;;;;;27.30;24.90;;;17.40;99.90;;;;;;5972518;23;20510;-88
2022/05/05 12:11:21;;;;;;;27.40;24.70;;;17.30;99.90;;;;;;5992477;23;20519;-88
2022/05/05 12:13:50;;;;;;;29.37;26.87;;;17.10;99.90;;;;;;6003606;23;20488;-89
2022/05/05 12:16:18;;;;;;;27.10;24.60;;;16.90;99.90;;;;;;5979171;23;20514;-91
2022/05/05 12:18:51;;;;;;;28.20;25.70;;;16.80;99.90;;;;;;6000955;23;20478;-88
2022/05/05 12:21:23;;;;;;;28.43;25.83;;;16.70;99.90;;;;;;5996804;23;20445;-91
2022/05/05 12:23:57;;;;;;;29.63;26.90;;;16.80;99.90;;;;;;6003239;23;20495;-89
2022/05/05 12:26:29;;;;;;;24.73;22.53;;;16.70;99.90;;;;;;6003468;23;20534;-86
2022/05/05 12:28:56;;;;;;;28.07;25.40;;;16.70;99.90;;;;;;6001798;23;20444;-83
2022/05/05 12:31:24;;;;;;;28.80;26.10;;;16.70;99.90;;;;;;5994182;23;20472;-89
2022/05/05 12:33:52;;;;;;;27.60;25.10;;;16.70;99.90;;;;;;5999061;23;20461;-88
2022/05/05 12:36:19;;;;;;;28.30;25.80;;;16.70;99.90;;;;;;6001978;23;20535;-91
2022/05/05 12:38:51;;;;;;;30.57;27.77;;;16.60;99.90;;;;;;5966250;23;20444;-89
2022/05/05 12:41:18;;;;;;;30.27;27.27;;;16.50;99.90;;;;;;5988770;23;20446;-89
2022/05/05 12:43:45;;;;;;;32.33;29.30;;;16.50;99.90;;;;;;6002654;23;20461;-89
2022/05/05 12:46:16;;;;;;;30.10;27.50;;;16.60;99.90;;;;;;6000862;23;20494;-89
2022/05/05 12:48:45;;;;;;;32.83;29.70;;;16.60;99.90;;;;;;5979631;23;20860;-89
2022/05/05 12:51:17;;;;;;;31.70;28.80;;;16.60;99.90;;;;;;6005099;23;21022;-89
2022/05/05 13:01:59;;;;;;;30.87;28.17;;;16.80;99.90;;;;;;5995720;23;20523;-89
2022/05/05 13:04:25;;;;;;;33.27;30.07;;;16.70;99.90;;;;;;6004493;23;20523;-89
2022/05/05 13:06:53;;;;;;;34.07;30.77;;;16.70;99.90;;;;;;6003104;23;20476;-89
2022/05/05 13:09:20;;;;;;;34.30;31.17;;;16.70;99.90;;;;;;6005009;23;20436;-89
2022/05/05 13:11:51;;;;;;;30.93;28.13;;;16.70;99.90;;;;;;6003480;23;20468;-89
2022/05/05 13:14:20;;;;;;;30.60;27.90;;;16.70;99.90;;;;;;6001509;23;20495;-93
2022/05/05 13:16:48;;;;;;;31.07;28.37;;;16.60;99.90;;;;;;6000386;23;20456;-91
2022/05/05 13:19:15;;;;;;;31.23;28.43;;;16.50;99.90;;;;;;6003011;23;21492;-90
2022/05/05 13:21:42;;;;;;;28.63;26.13;;;16.50;99.90;;;;;;6003195;23;20459;-91
2022/05/05 13:24:11;;;;;;;29.63;27.10;;;16.50;99.90;;;;;;6003586;23;20464;-90
2022/05/05 13:26:39;;;;;;;28.17;25.63;;;16.60;99.90;;;;;;6006360;23;20445;-89
2022/05/05 13:29:08;;;;;;;28.30;25.80;;;16.50;99.90;;;;;;6005924;23;20441;-85
2022/05/05 13:31:35;;;;;;;28.20;25.47;;;16.40;99.90;;;;;;5992825;23;20476;-82
2022/05/05 13:34:02;;;;;;;27.40;25.00;;;16.40;99.90;;;;;;5992311;23;20457;-80
2022/05/05 13:36:29;;;;;;;29.80;27.20;;;16.40;99.90;;;;;;6000479;23;20447;-83
2022/05/05 13:38:57;;;;;;;29.20;26.70;;;16.50;99.90;;;;;;5987795;23;20506;-81